Terminal Aerodrome Forecast
Issued by NWS Cleveland, OH

Home | Current Version | Previous Version | Graphics & Text | Print | Product List | Glossary On
Versions: 1 2 3 4 5 6 7 8 9 10 11 12 13 14 15 16 17 18
601
FTUS41 KCLE 250220 AAA
TAFMFD
TAF AMD
KMFD 250220Z 2502/2524 18014KT P6SM -SHRA VCTS SCT045CB BKN150
      TEMPO 2502/2506 26020G40KT 3SM TSRA BKN025CB
     FM250600 23010G20KT P6SM VCSH BKN025
     FM251200 25015G25KT P6SM OVC020=

USA.gov is the U.S. government's official web portal to all federal, state and local government web resources and services.